sensor_id;sensor_type;location;lat;lon;timestamp;P1;durP1;ratioP1;P2;durP2;ratioP2
68718;SDS011;55696;52.138;5.444;2022-11-20T00:01:20;25.67;;;11.75;;
68718;SDS011;55696;52.138;5.444;2022-11-20T00:03:48;24.65;;;12.63;;
68718;SDS011;55696;52.138;5.444;2022-11-20T00:06:17;25.35;;;11.68;;
68718;SDS011;55696;52.138;5.444;2022-11-20T00:08:45;22.00;;;10.45;;
68718;SDS011;55696;52.138;5.444;2022-11-20T00:11:20;19.67;;;10.63;;
68718;SDS011;55696;52.138;5.444;2022-11-20T00:13:49;22.20;;;12.32;;
68718;SDS011;55696;52.138;5.444;2022-11-20T00:16:19;24.50;;;12.07;;
68718;SDS011;55696;52.138;5.444;2022-11-20T00:18:50;23.65;;;12.40;;
68718;SDS011;55696;52.138;5.444;2022-11-20T00:21:24;24.40;;;10.68;;
68718;SDS011;55696;52.138;5.444;2022-11-20T00:23:53;24.33;;;11.60;;
68718;SDS011;55696;52.138;5.444;2022-11-20T00:26:22;25.15;;;12.05;;
68718;SDS011;55696;52.138;5.444;2022-11-20T00:28:51;25.80;;;12.18;;
68718;SDS011;55696;52.138;5.444;2022-11-20T00:31:23;22.00;;;11.35;;
68718;SDS011;55696;52.138;5.444;2022-11-20T00:33:50;24.45;;;12.20;;
68718;SDS011;55696;52.138;5.444;2022-11-20T00:36:21;27.77;;;12.40;;
68718;SDS011;55696;52.138;5.444;2022-11-20T00:38:52;21.58;;;10.52;;
68718;SDS011;55696;52.138;5.444;2022-11-20T00:41:23;20.20;;;10.57;;
68718;SDS011;55696;52.138;5.444;2022-11-20T00:43:52;22.48;;;11.27;;
68718;SDS011;55696;52.138;5.444;2022-11-20T00:46:20;22.88;;;11.43;;
68718;SDS011;55696;52.138;5.444;2022-11-20T00:48:49;23.17;;;10.40;;
68718;SDS011;55696;52.138;5.444;2022-11-20T00:51:20;20.35;;;9.73;;
68718;SDS011;55696;52.138;5.444;2022-11-20T00:53:49;22.80;;;10.90;;
68718;SDS011;55696;52.138;5.444;2022-11-20T00:56:17;21.80;;;11.23;;
68718;SDS011;55696;52.138;5.444;2022-11-20T00:58:45;23.27;;;11.80;;
68718;SDS011;55696;52.138;5.444;2022-11-20T01:01:23;19.95;;;10.57;;
68718;SDS011;55696;52.138;5.444;2022-11-20T01:03:53;20.08;;;10.68;;
68718;SDS011;55696;52.138;5.444;2022-11-20T01:06:22;20.23;;;9.70;;
68718;SDS011;55696;52.138;5.444;2022-11-20T01:08:50;23.30;;;11.38;;
68718;SDS011;55696;52.138;5.444;2022-11-20T01:11:20;21.88;;;10.70;;
68718;SDS011;55696;52.138;5.444;2022-11-20T01:13:49;19.80;;;10.07;;
68718;SDS011;55696;52.138;5.444;2022-11-20T01:16:19;20.73;;;10.37;;
68718;SDS011;55696;52.138;5.444;2022-11-20T01:18:48;21.92;;;10.60;;
68718;SDS011;55696;52.138;5.444;2022-11-20T01:21:20;24.25;;;10.93;;
68718;SDS011;55696;52.138;5.444;2022-11-20T01:23:51;19.83;;;10.87;;
68718;SDS011;55696;52.138;5.444;2022-11-20T01:26:19;21.98;;;10.63;;
68718;SDS011;55696;52.138;5.444;2022-11-20T01:28:47;20.30;;;10.10;;
68718;SDS011;55696;52.138;5.444;2022-11-20T01:31:19;20.08;;;9.90;;
68718;SDS011;55696;52.138;5.444;2022-11-20T01:33:58;20.95;;;10.02;;
68718;SDS011;55696;52.138;5.444;2022-11-20T01:36:28;19.80;;;10.15;;
68718;SDS011;55696;52.138;5.444;2022-11-20T01:38:58;22.95;;;10.38;;
68718;SDS011;55696;52.138;5.444;2022-11-20T01:41:27;21.27;;;10.63;;
68718;SDS011;55696;52.138;5.444;2022-11-20T01:44:16;19.33;;;10.02;;
68718;SDS011;55696;52.138;5.444;2022-11-20T01:46:54;24.13;;;11.65;;
68718;SDS011;55696;52.138;5.444;2022-11-20T01:52:04;22.27;;;10.93;;
68718;SDS011;55696;52.138;5.444;2022-11-20T01:54:54;23.58;;;11.73;;
68718;SDS011;55696;52.138;5.444;2022-11-20T01:57:24;26.23;;;11.85;;
68718;SDS011;55696;52.138;5.444;2022-11-20T01:59:54;27.60;;;12.38;;
68718;SDS011;55696;52.138;5.444;2022-11-20T02:02:26;23.58;;;12.00;;
68718;SDS011;55696;52.138;5.444;2022-11-20T02:04:54;25.98;;;11.82;;
68718;SDS011;55696;52.138;5.444;2022-11-20T02:07:26;19.57;;;10.13;;
68718;SDS011;55696;52.138;5.444;2022-11-20T02:09:54;22.02;;;11.38;;
68718;SDS011;55696;52.138;5.444;2022-11-20T02:12:24;19.67;;;10.30;;
68718;SDS011;55696;52.138;5.444;2022-11-20T02:15:09;20.13;;;10.53;;
68718;SDS011;55696;52.138;5.444;2022-11-20T02:17:36;21.13;;;10.65;;
68718;SDS011;55696;52.138;5.444;2022-11-20T02:20:03;22.85;;;10.57;;
68718;SDS011;55696;52.138;5.444;2022-11-20T02:22:31;21.90;;;10.65;;
68718;SDS011;55696;52.138;5.444;2022-11-20T02:25:13;21.67;;;10.32;;
68718;SDS011;55696;52.138;5.444;2022-11-20T02:27:40;21.40;;;10.00;;
68718;SDS011;55696;52.138;5.444;2022-11-20T02:30:07;23.75;;;10.63;;
68718;SDS011;55696;52.138;5.444;2022-11-20T02:32:37;23.20;;;11.03;;
68718;SDS011;55696;52.138;5.444;2022-11-20T02:35:08;21.38;;;10.63;;
68718;SDS011;55696;52.138;5.444;2022-11-20T02:37:56;23.17;;;10.90;;
68718;SDS011;55696;52.138;5.444;2022-11-20T02:40:27;20.87;;;10.57;;
68718;SDS011;55696;52.138;5.444;2022-11-20T02:42:54;21.40;;;10.27;;
68718;SDS011;55696;52.138;5.444;2022-11-20T02:45:22;20.80;;;10.63;;
68718;SDS011;55696;52.138;5.444;2022-11-20T02:47:50;21.05;;;11.00;;
68718;SDS011;55696;52.138;5.444;2022-11-20T02:50:17;22.88;;;11.23;;
68718;SDS011;55696;52.138;5.444;2022-11-20T02:52:44;23.67;;;11.02;;
68718;SDS011;55696;52.138;5.444;2022-11-20T02:55:11;19.27;;;10.43;;
68718;SDS011;55696;52.138;5.444;2022-11-20T02:57:37;24.60;;;11.17;;
68718;SDS011;55696;52.138;5.444;2022-11-20T03:00:05;22.77;;;11.27;;
68718;SDS011;55696;52.138;5.444;2022-11-20T03:02:33;18.25;;;9.07;;
68718;SDS011;55696;52.138;5.444;2022-11-20T03:05:00;21.63;;;10.00;;
68718;SDS011;55696;52.138;5.444;2022-11-20T03:07:27;20.63;;;11.15;;
68718;SDS011;55696;52.138;5.444;2022-11-20T03:09:53;22.80;;;11.68;;
68718;SDS011;55696;52.138;5.444;2022-11-20T03:12:20;22.45;;;10.55;;
68718;SDS011;55696;52.138;5.444;2022-11-20T03:14:47;21.98;;;10.38;;
68718;SDS011;55696;52.138;5.444;2022-11-20T03:17:18;18.17;;;9.50;;
68718;SDS011;55696;52.138;5.444;2022-11-20T03:19:45;21.40;;;10.98;;
68718;SDS011;55696;52.138;5.444;2022-11-20T03:22:11;24.67;;;10.40;;
68718;SDS011;55696;52.138;5.444;2022-11-20T03:24:38;23.60;;;10.15;;
68718;SDS011;55696;52.138;5.444;2022-11-20T03:27:05;25.42;;;10.23;;
68718;SDS011;55696;52.138;5.444;2022-11-20T03:29:31;22.10;;;11.20;;
68718;SDS011;55696;52.138;5.444;2022-11-20T03:31:58;24.10;;;10.38;;
68718;SDS011;55696;52.138;5.444;2022-11-20T03:34:25;21.05;;;9.48;;
68718;SDS011;55696;52.138;5.444;2022-11-20T03:36:52;20.42;;;10.52;;
68718;SDS011;55696;52.138;5.444;2022-11-20T03:39:18;18.27;;;9.27;;
68718;SDS011;55696;52.138;5.444;2022-11-20T03:41:45;19.17;;;10.13;;
68718;SDS011;55696;52.138;5.444;2022-11-20T03:44:12;21.92;;;10.20;;
68718;SDS011;55696;52.138;5.444;2022-11-20T03:46:39;17.23;;;9.40;;
68718;SDS011;55696;52.138;5.444;2022-11-20T03:49:05;21.17;;;9.65;;
68718;SDS011;55696;52.138;5.444;2022-11-20T03:51:33;17.70;;;9.65;;
68718;SDS011;55696;52.138;5.444;2022-11-20T03:54:04;19.70;;;9.80;;
68718;SDS011;55696;52.138;5.444;2022-11-20T03:56:34;18.77;;;9.50;;
68718;SDS011;55696;52.138;5.444;2022-11-20T03:59:02;21.67;;;10.73;;
68718;SDS011;55696;52.138;5.444;2022-11-20T04:01:30;22.45;;;10.90;;
68718;SDS011;55696;52.138;5.444;2022-11-20T04:03:59;21.75;;;10.27;;
68718;SDS011;55696;52.138;5.444;2022-11-20T04:06:27;20.02;;;9.90;;
68718;SDS011;55696;52.138;5.444;2022-11-20T04:08:56;20.90;;;9.15;;
68718;SDS011;55696;52.138;5.444;2022-11-20T04:11:24;21.20;;;9.60;;
68718;SDS011;55696;52.138;5.444;2022-11-20T04:13:57;15.73;;;8.75;;
68718;SDS011;55696;52.138;5.444;2022-11-20T04:16:29;19.38;;;9.52;;
68718;SDS011;55696;52.138;5.444;2022-11-20T04:18:58;23.27;;;10.57;;
68718;SDS011;55696;52.138;5.444;2022-11-20T04:21:26;17.95;;;9.13;;
68718;SDS011;55696;52.138;5.444;2022-11-20T04:23:54;20.77;;;10.27;;
68718;SDS011;55696;52.138;5.444;2022-11-20T04:26:22;23.52;;;9.93;;
68718;SDS011;55696;52.138;5.444;2022-11-20T04:28:50;23.55;;;9.88;;
68718;SDS011;55696;52.138;5.444;2022-11-20T04:31:18;21.80;;;9.65;;
68718;SDS011;55696;52.138;5.444;2022-11-20T04:33:50;19.83;;;9.48;;
68718;SDS011;55696;52.138;5.444;2022-11-20T04:36:17;18.80;;;8.83;;
68718;SDS011;55696;52.138;5.444;2022-11-20T04:39:01;19.50;;;9.60;;
68718;SDS011;55696;52.138;5.444;2022-11-20T04:41:30;19.17;;;8.65;;
68718;SDS011;55696;52.138;5.444;2022-11-20T04:43:59;24.63;;;9.43;;
68718;SDS011;55696;52.138;5.444;2022-11-20T04:46:30;17.25;;;8.70;;
68718;SDS011;55696;52.138;5.444;2022-11-20T04:48:58;18.02;;;9.35;;
68718;SDS011;55696;52.138;5.444;2022-11-20T04:51:25;15.68;;;7.95;;
68718;SDS011;55696;52.138;5.444;2022-11-20T04:53:53;17.55;;;8.85;;
68718;SDS011;55696;52.138;5.444;2022-11-20T04:56:20;16.98;;;9.18;;
68718;SDS011;55696;52.138;5.444;2022-11-20T04:58:46;19.52;;;9.45;;
68718;SDS011;55696;52.138;5.444;2022-11-20T05:01:20;19.07;;;8.93;;
68718;SDS011;55696;52.138;5.444;2022-11-20T05:03:49;16.10;;;8.30;;
68718;SDS011;55696;52.138;5.444;2022-11-20T05:06:17;19.48;;;8.60;;
68718;SDS011;55696;52.138;5.444;2022-11-20T05:08:46;17.03;;;8.30;;
68718;SDS011;55696;52.138;5.444;2022-11-20T05:11:15;17.35;;;8.63;;
68718;SDS011;55696;52.138;5.444;2022-11-20T05:13:43;17.65;;;8.27;;
68718;SDS011;55696;52.138;5.444;2022-11-20T05:16:14;17.90;;;9.52;;
68718;SDS011;55696;52.138;5.444;2022-11-20T05:18:46;16.38;;;8.70;;
68718;SDS011;55696;52.138;5.444;2022-11-20T05:21:13;17.60;;;9.07;;
68718;SDS011;55696;52.138;5.444;2022-11-20T05:23:40;17.42;;;8.80;;
68718;SDS011;55696;52.138;5.444;2022-11-20T05:26:07;19.27;;;9.57;;
68718;SDS011;55696;52.138;5.444;2022-11-20T05:28:37;20.83;;;8.85;;
68718;SDS011;55696;52.138;5.444;2022-11-20T05:31:05;15.55;;;8.13;;
68718;SDS011;55696;52.138;5.444;2022-11-20T05:33:36;18.13;;;9.20;;
68718;SDS011;55696;52.138;5.444;2022-11-20T05:36:07;15.88;;;8.00;;
68718;SDS011;55696;52.138;5.444;2022-11-20T05:38:34;17.88;;;8.50;;
68718;SDS011;55696;52.138;5.444;2022-11-20T05:41:08;17.38;;;7.80;;
68718;SDS011;55696;52.138;5.444;2022-11-20T05:43:37;18.88;;;8.88;;
68718;SDS011;55696;52.138;5.444;2022-11-20T05:46:05;18.60;;;9.52;;
68718;SDS011;55696;52.138;5.444;2022-11-20T05:48:33;18.52;;;9.45;;
68718;SDS011;55696;52.138;5.444;2022-11-20T05:51:02;19.53;;;9.30;;
68718;SDS011;55696;52.138;5.444;2022-11-20T05:53:30;15.30;;;7.40;;
68718;SDS011;55696;52.138;5.444;2022-11-20T05:58:32;20.07;;;9.10;;
68718;SDS011;55696;52.138;5.444;2022-11-20T06:01:05;17.80;;;8.48;;
68718;SDS011;55696;52.138;5.444;2022-11-20T06:03:40;17.27;;;8.80;;
68718;SDS011;55696;52.138;5.444;2022-11-20T06:06:13;17.58;;;8.38;;
68718;SDS011;55696;52.138;5.444;2022-11-20T06:08:41;16.10;;;8.07;;
68718;SDS011;55696;52.138;5.444;2022-11-20T06:11:09;19.75;;;8.80;;
68718;SDS011;55696;52.138;5.444;2022-11-20T06:13:37;17.15;;;9.05;;
68718;SDS011;55696;52.138;5.444;2022-11-20T06:16:08;16.53;;;8.57;;
68718;SDS011;55696;52.138;5.444;2022-11-20T06:18:36;18.67;;;9.13;;
68718;SDS011;55696;52.138;5.444;2022-11-20T06:21:04;15.18;;;8.15;;
68718;SDS011;55696;52.138;5.444;2022-11-20T06:23:33;21.17;;;9.37;;
68718;SDS011;55696;52.138;5.444;2022-11-20T06:26:04;15.18;;;7.68;;
68718;SDS011;55696;52.138;5.444;2022-11-20T06:28:33;19.05;;;8.77;;
68718;SDS011;55696;52.138;5.444;2022-11-20T06:31:00;19.63;;;9.07;;
68718;SDS011;55696;52.138;5.444;2022-11-20T06:33:28;18.80;;;8.50;;
68718;SDS011;55696;52.138;5.444;2022-11-20T06:35:58;21.88;;;9.57;;
68718;SDS011;55696;52.138;5.444;2022-11-20T06:38:32;18.77;;;9.15;;
68718;SDS011;55696;52.138;5.444;2022-11-20T06:40:59;16.67;;;8.43;;
68718;SDS011;55696;52.138;5.444;2022-11-20T06:43:26;22.10;;;9.73;;
68718;SDS011;55696;52.138;5.444;2022-11-20T06:45:55;18.60;;;8.93;;
68718;SDS011;55696;52.138;5.444;2022-11-20T06:48:23;17.83;;;9.47;;
68718;SDS011;55696;52.138;5.444;2022-11-20T06:50:51;20.90;;;10.10;;
68718;SDS011;55696;52.138;5.444;2022-11-20T06:53:18;19.73;;;9.52;;
68718;SDS011;55696;52.138;5.444;2022-11-20T06:55:45;22.48;;;11.00;;
68718;SDS011;55696;52.138;5.444;2022-11-20T06:58:13;20.85;;;9.63;;
68718;SDS011;55696;52.138;5.444;2022-11-20T07:00:41;26.52;;;11.15;;
68718;SDS011;55696;52.138;5.444;2022-11-20T07:03:08;21.48;;;10.20;;
68718;SDS011;55696;52.138;5.444;2022-11-20T07:05:36;17.23;;;9.23;;
68718;SDS011;55696;52.138;5.444;2022-11-20T07:08:04;18.58;;;9.30;;
68718;SDS011;55696;52.138;5.444;2022-11-20T07:10:31;17.98;;;8.30;;
68718;SDS011;55696;52.138;5.444;2022-11-20T07:12:58;15.93;;;7.93;;
68718;SDS011;55696;52.138;5.444;2022-11-20T07:15:25;17.80;;;7.93;;
68718;SDS011;55696;52.138;5.444;2022-11-20T07:17:52;19.88;;;8.63;;
68718;SDS011;55696;52.138;5.444;2022-11-20T07:20:19;14.82;;;8.18;;
68718;SDS011;55696;52.138;5.444;2022-11-20T07:22:46;16.13;;;8.25;;
68718;SDS011;55696;52.138;5.444;2022-11-20T07:25:13;18.65;;;8.32;;
68718;SDS011;55696;52.138;5.444;2022-11-20T07:27:39;14.50;;;7.85;;
68718;SDS011;55696;52.138;5.444;2022-11-20T07:30:06;20.63;;;8.17;;
68718;SDS011;55696;52.138;5.444;2022-11-20T07:32:33;15.82;;;8.38;;
68718;SDS011;55696;52.138;5.444;2022-11-20T07:35:00;18.80;;;8.48;;
68718;SDS011;55696;52.138;5.444;2022-11-20T07:37:26;18.43;;;8.73;;
68718;SDS011;55696;52.138;5.444;2022-11-20T07:39:53;17.63;;;8.60;;
68718;SDS011;55696;52.138;5.444;2022-11-20T07:42:20;16.20;;;8.18;;
68718;SDS011;55696;52.138;5.444;2022-11-20T07:44:49;21.00;;;9.02;;
68718;SDS011;55696;52.138;5.444;2022-11-20T07:47:16;17.33;;;9.48;;
68718;SDS011;55696;52.138;5.444;2022-11-20T07:49:43;15.77;;;8.35;;
68718;SDS011;55696;52.138;5.444;2022-11-20T07:52:09;19.73;;;9.10;;
68718;SDS011;55696;52.138;5.444;2022-11-20T07:54:36;19.90;;;8.37;;
68718;SDS011;55696;52.138;5.444;2022-11-20T07:57:03;19.17;;;9.63;;
68718;SDS011;55696;52.138;5.444;2022-11-20T07:59:30;24.40;;;10.32;;
68718;SDS011;55696;52.138;5.444;2022-11-20T08:01:57;19.07;;;9.53;;
68718;SDS011;55696;52.138;5.444;2022-11-20T08:04:23;21.95;;;9.57;;
68718;SDS011;55696;52.138;5.444;2022-11-20T08:06:51;21.85;;;9.93;;
68718;SDS011;55696;52.138;5.444;2022-11-20T08:09:18;22.33;;;9.90;;
68718;SDS011;55696;52.138;5.444;2022-11-20T08:11:45;22.00;;;10.85;;
68718;SDS011;55696;52.138;5.444;2022-11-20T08:14:31;22.83;;;11.15;;
68718;SDS011;55696;52.138;5.444;2022-11-20T08:16:58;19.02;;;10.05;;
68718;SDS011;55696;52.138;5.444;2022-11-20T08:19:25;20.57;;;9.47;;
68718;SDS011;55696;52.138;5.444;2022-11-20T08:21:52;19.38;;;9.15;;
68718;SDS011;55696;52.138;5.444;2022-11-20T08:24:18;22.40;;;10.57;;
68718;SDS011;55696;52.138;5.444;2022-11-20T08:26:45;20.83;;;10.83;;
68718;SDS011;55696;52.138;5.444;2022-11-20T08:29:12;17.58;;;9.93;;
68718;SDS011;55696;52.138;5.444;2022-11-20T08:31:39;22.30;;;10.73;;
68718;SDS011;55696;52.138;5.444;2022-11-20T08:34:05;23.05;;;10.60;;
68718;SDS011;55696;52.138;5.444;2022-11-20T08:36:35;22.40;;;10.63;;
68718;SDS011;55696;52.138;5.444;2022-11-20T08:39:02;22.70;;;11.15;;
68718;SDS011;55696;52.138;5.444;2022-11-20T08:41:29;23.10;;;11.13;;
68718;SDS011;55696;52.138;5.444;2022-11-20T08:43:59;21.33;;;10.30;;
68718;SDS011;55696;52.138;5.444;2022-11-20T08:46:32;19.25;;;9.63;;
68718;SDS011;55696;52.138;5.444;2022-11-20T08:49:03;19.63;;;9.65;;
68718;SDS011;55696;52.138;5.444;2022-11-20T08:51:30;19.90;;;10.17;;
68718;SDS011;55696;52.138;5.444;2022-11-20T08:53:57;18.83;;;9.75;;
68718;SDS011;55696;52.138;5.444;2022-11-20T08:56:24;20.35;;;10.77;;
68718;SDS011;55696;52.138;5.444;2022-11-20T08:58:51;23.73;;;10.13;;
68718;SDS011;55696;52.138;5.444;2022-11-20T09:01:38;25.00;;;11.15;;
68718;SDS011;55696;52.138;5.444;2022-11-20T09:04:05;20.80;;;9.40;;
68718;SDS011;55696;52.138;5.444;2022-11-20T09:06:32;22.08;;;10.90;;
68718;SDS011;55696;52.138;5.444;2022-11-20T09:08:59;30.53;;;12.67;;
68718;SDS011;55696;52.138;5.444;2022-11-20T09:11:32;28.40;;;12.77;;
68718;SDS011;55696;52.138;5.444;2022-11-20T09:13:58;27.58;;;12.52;;
68718;SDS011;55696;52.138;5.444;2022-11-20T09:16:26;29.73;;;12.53;;
68718;SDS011;55696;52.138;5.444;2022-11-20T09:18:52;23.45;;;11.57;;
68718;SDS011;55696;52.138;5.444;2022-11-20T09:21:39;30.52;;;11.90;;
68718;SDS011;55696;52.138;5.444;2022-11-20T09:24:06;23.55;;;11.88;;
68718;SDS011;55696;52.138;5.444;2022-11-20T09:26:33;21.30;;;11.65;;
68718;SDS011;55696;52.138;5.444;2022-11-20T09:28:59;22.17;;;12.15;;
68718;SDS011;55696;52.138;5.444;2022-11-20T09:31:26;19.92;;;11.02;;
68718;SDS011;55696;52.138;5.444;2022-11-20T09:33:53;20.73;;;11.30;;
68718;SDS011;55696;52.138;5.444;2022-11-20T09:36:19;23.02;;;11.85;;
68718;SDS011;55696;52.138;5.444;2022-11-20T09:38:47;30.98;;;12.27;;
68718;SDS011;55696;52.138;5.444;2022-11-20T09:44:28;21.23;;;10.50;;
68718;SDS011;55696;52.138;5.444;2022-11-20T09:50:21;23.02;;;11.70;;
68718;SDS011;55696;52.138;5.444;2022-11-20T09:53:04;23.10;;;10.95;;
68718;SDS011;55696;52.138;5.444;2022-11-20T09:55:37;23.45;;;12.18;;
68718;SDS011;55696;52.138;5.444;2022-11-20T09:58:12;21.98;;;11.13;;
68718;SDS011;55696;52.138;5.444;2022-11-20T10:00:46;21.83;;;11.23;;
68718;SDS011;55696;52.138;5.444;2022-11-20T10:03:19;20.75;;;10.77;;
68718;SDS011;55696;52.138;5.444;2022-11-20T10:06:02;19.17;;;10.55;;
68718;SDS011;55696;52.138;5.444;2022-11-20T10:08:40;23.00;;;10.77;;
68718;SDS011;55696;52.138;5.444;2022-11-20T10:11:27;21.48;;;11.60;;
68718;SDS011;55696;52.138;5.444;2022-11-20T10:14:10;24.30;;;11.85;;
68718;SDS011;55696;52.138;5.444;2022-11-20T10:19:34;21.42;;;11.23;;
68718;SDS011;55696;52.138;5.444;2022-11-20T10:25:15;25.55;;;12.65;;
68718;SDS011;55696;52.138;5.444;2022-11-20T10:30:39;23.17;;;12.35;;
68718;SDS011;55696;52.138;5.444;2022-11-20T10:36:28;23.20;;;11.90;;
68718;SDS011;55696;52.138;5.444;2022-11-20T10:39:10;28.95;;;13.15;;
68718;SDS011;55696;52.138;5.444;2022-11-20T10:41:46;29.48;;;13.38;;
68718;SDS011;55696;52.138;5.444;2022-11-20T10:44:22;22.90;;;12.00;;
68718;SDS011;55696;52.138;5.444;2022-11-20T10:47:13;25.92;;;13.00;;
68718;SDS011;55696;52.138;5.444;2022-11-20T10:49:41;26.25;;;12.55;;
68718;SDS011;55696;52.138;5.444;2022-11-20T11:00:30;26.88;;;13.07;;
68718;SDS011;55696;52.138;5.444;2022-11-20T11:02:57;26.15;;;13.40;;
68718;SDS011;55696;52.138;5.444;2022-11-20T11:08:02;24.77;;;13.63;;
68718;SDS011;55696;52.138;5.444;2022-11-20T11:13:23;26.13;;;13.03;;
68718;SDS011;55696;52.138;5.444;2022-11-20T11:15:51;26.92;;;13.75;;
68718;SDS011;55696;52.138;5.444;2022-11-20T11:18:25;28.55;;;14.02;;
68718;SDS011;55696;52.138;5.444;2022-11-20T11:21:01;30.80;;;13.90;;
68718;SDS011;55696;52.138;5.444;2022-11-20T11:23:37;30.35;;;14.43;;
68718;SDS011;55696;52.138;5.444;2022-11-20T11:26:07;32.72;;;15.13;;
68718;SDS011;55696;52.138;5.444;2022-11-20T11:28:57;29.48;;;14.30;;
68718;SDS011;55696;52.138;5.444;2022-11-20T11:31:30;31.83;;;14.60;;
68718;SDS011;55696;52.138;5.444;2022-11-20T11:34:04;26.40;;;14.25;;
68718;SDS011;55696;52.138;5.444;2022-11-20T11:36:32;32.42;;;15.20;;
68718;SDS011;55696;52.138;5.444;2022-11-20T11:39:00;30.47;;;15.50;;
68718;SDS011;55696;52.138;5.444;2022-11-20T11:41:30;28.58;;;14.55;;
68718;SDS011;55696;52.138;5.444;2022-11-20T11:47:04;32.25;;;15.75;;
68718;SDS011;55696;52.138;5.444;2022-11-20T11:49:35;33.37;;;15.70;;
68718;SDS011;55696;52.138;5.444;2022-11-20T11:52:13;28.75;;;13.57;;
68718;SDS011;55696;52.138;5.444;2022-11-20T11:54:48;32.35;;;15.23;;
68718;SDS011;55696;52.138;5.444;2022-11-20T11:57:22;32.73;;;16.67;;
68718;SDS011;55696;52.138;5.444;2022-11-20T12:00:09;35.17;;;15.35;;
68718;SDS011;55696;52.138;5.444;2022-11-20T12:10:57;33.33;;;15.77;;
68718;SDS011;55696;52.138;5.444;2022-11-20T12:13:41;32.80;;;14.65;;
68718;SDS011;55696;52.138;5.444;2022-11-20T12:16:30;31.03;;;14.93;;
68718;SDS011;55696;52.138;5.444;2022-11-20T12:19:00;31.70;;;15.43;;
68718;SDS011;55696;52.138;5.444;2022-11-20T12:24:06;36.72;;;14.73;;
68718;SDS011;55696;52.138;5.444;2022-11-20T12:26:55;29.60;;;14.40;;
68718;SDS011;55696;52.138;5.444;2022-11-20T12:37:48;31.57;;;15.97;;
68718;SDS011;55696;52.138;5.444;2022-11-20T12:49:10;29.10;;;13.77;;
68718;SDS011;55696;52.138;5.444;2022-11-20T12:59:49;29.05;;;13.95;;
68718;SDS011;55696;52.138;5.444;2022-11-20T13:02:41;30.27;;;15.70;;
68718;SDS011;55696;52.138;5.444;2022-11-20T13:05:34;33.75;;;15.60;;
68718;SDS011;55696;52.138;5.444;2022-11-20T13:19:09;33.00;;;16.15;;
68718;SDS011;55696;52.138;5.444;2022-11-20T13:21:40;27.52;;;14.82;;
68718;SDS011;55696;52.138;5.444;2022-11-20T13:29:58;27.52;;;14.25;;
68718;SDS011;55696;52.138;5.444;2022-11-20T13:32:27;31.58;;;15.82;;
68718;SDS011;55696;52.138;5.444;2022-11-20T13:35:02;33.50;;;15.27;;
68718;SDS011;55696;52.138;5.444;2022-11-20T13:37:34;35.07;;;15.67;;
68718;SDS011;55696;52.138;5.444;2022-11-20T13:42:38;32.28;;;15.40;;
68718;SDS011;55696;52.138;5.444;2022-11-20T13:45:09;29.75;;;14.85;;
68718;SDS011;55696;52.138;5.444;2022-11-20T13:47:50;30.33;;;15.40;;
68718;SDS011;55696;52.138;5.444;2022-11-20T13:50:18;34.40;;;15.65;;
68718;SDS011;55696;52.138;5.444;2022-11-20T13:58:50;32.97;;;15.37;;
68718;SDS011;55696;52.138;5.444;2022-11-20T14:01:44;27.77;;;13.50;;
68718;SDS011;55696;52.138;5.444;2022-11-20T14:04:17;30.48;;;13.75;;
68718;SDS011;55696;52.138;5.444;2022-11-20T14:06:48;31.05;;;15.10;;
68718;SDS011;55696;52.138;5.444;2022-11-20T14:09:28;31.27;;;16.00;;
68718;SDS011;55696;52.138;5.444;2022-11-20T14:11:56;33.72;;;15.18;;
68718;SDS011;55696;52.138;5.444;2022-11-20T14:14:27;31.85;;;16.38;;
68718;SDS011;55696;52.138;5.444;2022-11-20T14:20:05;35.10;;;15.97;;
68718;SDS011;55696;52.138;5.444;2022-11-20T14:22:37;35.60;;;16.45;;
68718;SDS011;55696;52.138;5.444;2022-11-20T14:27:32;30.02;;;15.25;;
68718;SDS011;55696;52.138;5.444;2022-11-20T14:30:04;31.25;;;14.88;;
68718;SDS011;55696;52.138;5.444;2022-11-20T14:32:31;31.38;;;15.32;;
68718;SDS011;55696;52.138;5.444;2022-11-20T14:35:03;40.13;;;16.50;;
68718;SDS011;55696;52.138;5.444;2022-11-20T14:37:37;35.03;;;16.00;;
68718;SDS011;55696;52.138;5.444;2022-11-20T14:40:21;35.45;;;16.60;;
68718;SDS011;55696;52.138;5.444;2022-11-20T14:43:01;40.90;;;16.67;;
68718;SDS011;55696;52.138;5.444;2022-11-20T14:45:42;36.40;;;16.55;;
68718;SDS011;55696;52.138;5.444;2022-11-20T14:48:15;31.43;;;15.70;;
68718;SDS011;55696;52.138;5.444;2022-11-20T14:50:42;29.27;;;15.02;;
68718;SDS011;55696;52.138;5.444;2022-11-20T14:53:09;31.67;;;14.35;;
68718;SDS011;55696;52.138;5.444;2022-11-20T14:55:37;31.48;;;14.57;;
68718;SDS011;55696;52.138;5.444;2022-11-20T14:58:05;34.93;;;16.50;;
68718;SDS011;55696;52.138;5.444;2022-11-20T15:03:36;31.98;;;15.55;;
68718;SDS011;55696;52.138;5.444;2022-11-20T15:06:05;34.22;;;16.00;;
68718;SDS011;55696;52.138;5.444;2022-11-20T15:08:33;33.97;;;16.30;;
68718;SDS011;55696;52.138;5.444;2022-11-20T15:11:01;31.48;;;16.77;;
68718;SDS011;55696;52.138;5.444;2022-11-20T15:13:32;32.13;;;15.55;;
68718;SDS011;55696;52.138;5.444;2022-11-20T15:16:02;37.20;;;16.73;;
68718;SDS011;55696;52.138;5.444;2022-11-20T15:18:38;32.63;;;16.57;;
68718;SDS011;55696;52.138;5.444;2022-11-20T15:21:14;31.95;;;15.13;;
68718;SDS011;55696;52.138;5.444;2022-11-20T15:23:47;34.28;;;15.85;;
68718;SDS011;55696;52.138;5.444;2022-11-20T15:26:15;37.63;;;17.88;;
68718;SDS011;55696;52.138;5.444;2022-11-20T15:28:49;36.53;;;18.07;;
68718;SDS011;55696;52.138;5.444;2022-11-20T15:31:18;33.45;;;16.90;;
68718;SDS011;55696;52.138;5.444;2022-11-20T15:33:46;36.03;;;17.63;;
68718;SDS011;55696;52.138;5.444;2022-11-20T15:36:13;32.22;;;16.20;;
68718;SDS011;55696;52.138;5.444;2022-11-20T15:38:40;39.70;;;19.03;;
68718;SDS011;55696;52.138;5.444;2022-11-20T15:41:07;36.70;;;17.73;;
68718;SDS011;55696;52.138;5.444;2022-11-20T15:43:35;35.63;;;17.02;;
68718;SDS011;55696;52.138;5.444;2022-11-20T15:46:05;35.50;;;16.58;;
68718;SDS011;55696;52.138;5.444;2022-11-20T15:48:39;33.80;;;16.23;;
68718;SDS011;55696;52.138;5.444;2022-11-20T15:53:49;34.47;;;17.13;;
68718;SDS011;55696;52.138;5.444;2022-11-20T15:56:16;35.60;;;15.48;;
68718;SDS011;55696;52.138;5.444;2022-11-20T15:58:42;35.10;;;16.48;;
68718;SDS011;55696;52.138;5.444;2022-11-20T16:01:10;33.97;;;15.85;;
68718;SDS011;55696;52.138;5.444;2022-11-20T16:03:38;35.42;;;16.60;;
68718;SDS011;55696;52.138;5.444;2022-11-20T16:06:05;36.97;;;16.90;;
68718;SDS011;55696;52.138;5.444;2022-11-20T16:08:31;31.83;;;15.65;;
68718;SDS011;55696;52.138;5.444;2022-11-20T16:10:58;32.95;;;16.23;;
68718;SDS011;55696;52.138;5.444;2022-11-20T16:13:25;33.58;;;15.93;;
68718;SDS011;55696;52.138;5.444;2022-11-20T16:16:21;35.70;;;16.60;;
68718;SDS011;55696;52.138;5.444;2022-11-20T16:18:50;28.08;;;14.75;;
68718;SDS011;55696;52.138;5.444;2022-11-20T16:21:17;34.22;;;16.20;;
68718;SDS011;55696;52.138;5.444;2022-11-20T16:23:43;39.25;;;16.52;;
68718;SDS011;55696;52.138;5.444;2022-11-20T16:26:14;33.75;;;15.48;;
68718;SDS011;55696;52.138;5.444;2022-11-20T16:28:43;34.65;;;16.42;;
68718;SDS011;55696;52.138;5.444;2022-11-20T16:31:11;25.58;;;14.23;;
68718;SDS011;55696;52.138;5.444;2022-11-20T16:33:39;32.05;;;15.32;;
68718;SDS011;55696;52.138;5.444;2022-11-20T16:36:06;30.73;;;14.63;;
68718;SDS011;55696;52.138;5.444;2022-11-20T16:38:34;30.80;;;14.90;;